This is the latest recevied weather packets stored in our database for station/object AK4NG. If no packets are shown the sender has not sent any weather packets the latest 10 day(s).
| Time | Temp. | Humidity | Pressure | Rain* | Wind** | Luminosity | Snow |
|---|---|---|---|---|---|---|---|
| 1777918122 | 25.56° C | 34% | 1017.3 hPa | 0 mm | - | 925 W/m² | - |
| 1777917820 | 25.56° C | 31% | 1017.5 hPa | 0 mm | - | 925 W/m² | - |
| 1777917518 | 25° C | 34% | 1017.3 hPa | 0 mm | - | 928 W/m² | - |
| 1777917214 | 25° C | 33% | 1017.3 hPa | 0 mm | - | 931 W/m² | - |
| 1777916913 | 24.44° C | 34% | 1017.5 hPa | 0 mm | - | 933 W/m² | - |
| 1777916610 | 25° C | 33% | 1017.6 hPa | 0 mm | - | 934 W/m² | - |
| 1777916307 | 25° C | 33% | 1017.7 hPa | 0 mm | - | 933 W/m² | - |
| 1777916003 | 25° C | 33% | 1017.7 hPa | 0 mm | - | 937 W/m² | - |
| 1777915700 | 25° C | 33% | 1017.9 hPa | 0 mm | - | 932 W/m² | - |
| 1777915397 | 25° C | 35% | 1018.1 hPa | 0 mm | - | 931 W/m² | - |
| 1777915093 | 25° C | 35% | 1017.9 hPa | 0 mm | - | 926 W/m² | - |
| 1777914790 | 25° C | 35% | 1018.1 hPa | 0 mm | - | 920 W/m² | - |
| 1777914487 | 24.44° C | 36% | 1018.1 hPa | 0 mm | - | 920 W/m² | - |
| 1777914184 | 25° C | 36% | 1017.9 hPa | 0 mm | - | 916 W/m² | - |
| 1777913880 | 25° C | 33% | 1018.1 hPa | 0 mm | - | 883 W/m² | - |
| 1777913577 | 25° C | 36% | 1018.2 hPa | 0 mm | - | 911 W/m² | - |
| 1777913273 | 24.44° C | 34% | 1018.2 hPa | 0 mm | - | 904 W/m² | - |
| 1777912970 | 23.33° C | 34% | 1018.4 hPa | 0 mm | - | 886 W/m² | - |
| 1777912666 | 24.44° C | 38% | 1018.4 hPa | 0 mm | - | 899 W/m² | - |
| 1777912362 | 23.89° C | 38% | 1018.3 hPa | 0 mm | - | 890 W/m² | - |
| 1777912059 | 23.89° C | 36% | 1018.4 hPa | 0 mm | - | 882 W/m² | - |
| 1777911755 | 23.33° C | 37% | 1018.6 hPa | 0 mm | - | 873 W/m² | - |
| 1777911452 | 23.89° C | 37% | 1018.6 hPa | 0 mm | - | 864 W/m² | - |
| 1777911148 | 23.33° C | 38% | 1018.9 hPa | 0 mm | - | 844 W/m² | - |
| 1777910846 | 22.78° C | 38% | 1018.6 hPa | 0 mm | - | 831 W/m² | - |
* Rain latest hour (hover to see other rain measurements)
** Current wind speed in m/s (hover to see current wind gust speed)